Huvudsida
METAR-TAF:

METAR-TAF

Flygplatser :

Cagliari, Italien

latitud: 39-15N, longitud: 009-04E, höjd: 4 m

Aktuellt väderrapport

Denna rapport gjordes för 24 minuter sedan, klockan 22:50 UTC
Vind 4 kt från nord/nordost, varierande mellan nord och ost/nordost
Temperatur 10°C
Fuktighet 93%
Tryck 1009 hPa
Sikt 10 km eller mer
Inga moln under 1 500 m eller inga cumulonimbus

METAR: LIEE 152250Z 03004KT 360V060 CAVOK 10/09 Q1009

Tid: 00:14 (23:14 UTC)

Väderprognos

Denna rapport gjordes för 6 timmar och 14 minuter sedan, klockan 17:00 UTC
Prognos gäller från 15 kl. 18 UTC till 16 kl. 18 UTC
Vind 12 kt från sydväst
Sikt 10 km eller mer
Spridda moln på en höjd av 2500 ft
Temporärt
från 16 kl. 12 UTC till 16 kl. 18 UTC
Sikt: 4000 m
regnskurar

TAF: LIEE 151700Z 1518/1618 23012KT 9999 SCT025 TEMPO 1612/1618 4000 SHRA

Aktuella väderrapporter och prognoser från 4000 flygplatser (METAR- och TAF-rapporter).

De tillgängliga stationerna syns som gula och röda prickar på kartan.

För musen över prickarna för att se namnen på stationerna.

Klicka sedan för att få väderrapporter och prognoser.

För att ändra kartan: Klicka på de gröna knapparna med ett svart kors på för att zooma in; den gröna knappen med ett streck på för att zooma ut; eller på de gröna pilarna för angränsande kartor.


METAR-TAF: